createdAt,value
2023-03-28T00:01:13.935Z,6.22
2023-03-28T00:03:42.706Z,6.42
2023-03-28T00:06:12.616Z,6.40
2023-03-28T00:08:42.031Z,6.40
2023-03-28T00:11:12.887Z,6.43
2023-03-28T00:13:41.342Z,6.50
2023-03-28T00:16:13.774Z,6.54
2023-03-28T00:18:43.297Z,6.49
2023-03-28T00:21:23.602Z,6.62
2023-03-28T00:23:53.944Z,6.61
2023-03-28T00:26:24.951Z,6.56
2023-03-28T00:28:54.849Z,6.68
2023-03-28T00:31:27.260Z,6.71
2023-03-28T00:33:56.394Z,6.40
2023-03-28T00:36:26.691Z,6.70
2023-03-28T00:38:55.339Z,6.70
2023-03-28T00:41:26.780Z,6.73
2023-03-28T00:43:56.726Z,6.74
2023-03-28T00:46:32.534Z,6.77
2023-03-28T00:49:06.821Z,6.76
2023-03-28T00:51:39.014Z,6.79
2023-03-28T00:54:12.116Z,6.81
2023-03-28T00:56:44.473Z,6.85
2023-03-28T00:59:16.554Z,6.87
2023-03-28T01:01:49.153Z,6.89
2023-03-28T01:04:22.369Z,6.88
2023-03-28T01:06:55.850Z,6.86
2023-03-28T01:09:25.878Z,6.82
2023-03-28T01:11:57.020Z,6.81
2023-03-28T01:14:29.184Z,6.86
2023-03-28T01:17:01.086Z,6.87
2023-03-28T01:19:45.803Z,6.82
2023-03-28T01:22:56.752Z,6.81
2023-03-28T01:26:20.257Z,6.75
2023-03-28T01:29:32.909Z,6.67
2023-03-28T01:32:50.698Z,6.64
2023-03-28T01:36:03.311Z,6.62
2023-03-28T01:38:40.877Z,6.63
2023-03-28T01:41:21.634Z,6.66
2023-03-28T01:43:57.618Z,6.63
2023-03-28T01:46:32.160Z,6.59
2023-03-28T01:49:08.275Z,6.64
2023-03-28T01:51:52.419Z,6.64
2023-03-28T01:54:31.297Z,6.60
2023-03-28T01:57:10.598Z,6.57
2023-03-28T01:59:43.708Z,6.50
2023-03-28T02:02:43.446Z,6.41
2023-03-28T02:05:28.466Z,6.12
2023-03-28T02:07:59.669Z,6.35
2023-03-28T02:10:43.345Z,5.46
2023-03-28T02:13:34.959Z,6.31
2023-03-28T02:16:16.935Z,6.38
2023-03-28T02:19:02.721Z,6.41
2023-03-28T02:22:08.467Z,6.36
2023-03-28T02:25:12.408Z,6.35
2023-03-28T02:28:00.405Z,6.37
2023-03-28T02:30:38.757Z,6.18
2023-03-28T02:33:10.221Z,6.46
2023-03-28T02:35:48.647Z,6.50
2023-03-28T02:38:25.733Z,6.52
2023-03-28T02:41:00.295Z,6.51
2023-03-28T02:43:46.667Z,6.52
2023-03-28T02:46:29.504Z,6.50
2023-03-28T02:49:19.089Z,6.50
2023-03-28T02:51:53.049Z,6.49
2023-03-28T02:54:30.112Z,6.49
2023-03-28T02:57:34.938Z,6.40
2023-03-28T03:00:11.653Z,6.30
2023-03-28T03:02:41.357Z,6.37
2023-03-28T03:05:10.151Z,6.36
2023-03-28T03:07:39.203Z,6.27
2023-03-28T03:10:09.364Z,6.25
2023-03-28T03:12:39.580Z,6.22
2023-03-28T03:15:11.922Z,5.97
2023-03-28T03:17:57.278Z,6.08
2023-03-28T03:20:32.989Z,6.05
2023-03-28T03:23:01.987Z,5.99
2023-03-28T03:25:32.522Z,5.92
2023-03-28T03:28:27.262Z,5.81
2023-03-28T03:30:57.604Z,5.78
2023-03-28T03:33:25.986Z,5.72
2023-03-28T03:36:00.412Z,5.64
2023-03-28T03:38:28.998Z,5.60
2023-03-28T03:40:57.507Z,5.55
2023-03-28T03:43:27.881Z,5.50
2023-03-28T03:45:58.059Z,5.43
2023-03-28T03:48:28.456Z,5.43
2023-03-28T03:51:01.839Z,5.44
2023-03-28T03:53:30.323Z,5.51
2023-03-28T03:56:10.197Z,5.32
2023-03-28T03:58:58.861Z,5.62
2023-03-28T04:01:40.060Z,5.73
2023-03-28T04:04:28.361Z,5.80
2023-03-28T04:07:22.850Z,5.86
2023-03-28T04:09:54.008Z,5.91
2023-03-28T04:12:22.662Z,5.96
2023-03-28T04:14:52.887Z,6.00
2023-03-28T04:17:35.322Z,5.95
2023-03-28T04:20:14.319Z,5.92
2023-03-28T04:23:01.698Z,5.93
2023-03-28T04:25:32.331Z,5.96
2023-03-28T04:28:11.691Z,5.95
2023-03-28T04:30:49.551Z,6.01
2023-03-28T04:33:37.760Z,6.04
2023-03-28T04:36:08.320Z,6.04
2023-03-28T04:38:37.383Z,6.05
2023-03-28T04:41:26.306Z,5.96
2023-03-28T04:44:03.883Z,5.87
2023-03-28T04:46:37.621Z,5.87
2023-03-28T04:49:14.262Z,5.86
2023-03-28T04:51:42.750Z,5.77
2023-03-28T04:54:11.230Z,5.70
2023-03-28T04:57:02.699Z,5.62
2023-03-28T04:59:39.581Z,5.54
2023-03-28T05:02:08.058Z,5.40
2023-03-28T05:04:46.027Z,5.47
2023-03-28T05:07:15.788Z,5.47
2023-03-28T05:09:44.643Z,5.50
2023-03-28T05:12:14.321Z,5.44
2023-03-28T05:15:21.866Z,5.35
2023-03-28T05:18:18.023Z,5.31
2023-03-28T05:20:48.241Z,5.29
2023-03-28T05:23:16.554Z,5.26
2023-03-28T05:25:51.987Z,5.22
2023-03-28T05:28:20.885Z,5.16
2023-03-28T05:30:52.598Z,5.12
2023-03-28T05:33:21.146Z,5.09
2023-03-28T05:35:52.029Z,5.06
2023-03-28T05:38:21.925Z,5.01
2023-03-28T05:40:54.505Z,4.95
2023-03-28T05:43:22.942Z,4.94
2023-03-28T05:45:51.398Z,4.91
2023-03-28T05:48:23.076Z,4.77
2023-03-28T05:50:52.905Z,4.60
2023-03-28T05:53:22.829Z,4.49
2023-03-28T05:55:51.927Z,4.52
2023-03-28T05:58:20.388Z,4.41
2023-03-28T06:00:48.872Z,4.41
2023-03-28T06:03:17.636Z,4.43
2023-03-28T06:05:48.147Z,4.47
2023-03-28T06:08:23.774Z,4.53
2023-03-28T06:10:52.404Z,4.58
2023-03-28T06:13:26.243Z,4.66
2023-03-28T06:15:55.145Z,4.75
2023-03-28T06:18:31.419Z,4.79
2023-03-28T06:20:59.927Z,4.92
2023-03-28T06:23:29.907Z,5.01
2023-03-28T06:25:58.547Z,5.05
2023-03-28T06:28:33.295Z,5.06
2023-03-28T06:31:19.915Z,5.11
2023-03-28T06:33:49.183Z,5.28
2023-03-28T06:36:20.779Z,5.45
2023-03-28T06:38:52.436Z,5.76
2023-03-28T06:41:22.911Z,6.06
2023-03-28T06:43:51.565Z,6.49
2023-03-28T06:46:52.186Z,6.96
2023-03-28T06:49:21.424Z,7.42
2023-03-28T06:52:08.270Z,7.82
2023-03-28T06:54:38.955Z,8.40
2023-03-28T06:57:07.282Z,8.72
2023-03-28T06:59:38.355Z,9.01
2023-03-28T07:02:12.101Z,9.07
2023-03-28T07:04:41.483Z,9.02
2023-03-28T07:07:10.085Z,8.97
2023-03-28T07:09:40.172Z,9.02
2023-03-28T07:12:13.966Z,8.97
2023-03-28T07:14:44.699Z,9.04
2023-03-28T07:17:13.281Z,9.09
2023-03-28T07:19:41.750Z,9.16
2023-03-28T07:22:10.536Z,9.25
2023-03-28T07:24:40.298Z,9.32
2023-03-28T07:27:16.210Z,9.39
2023-03-28T07:29:46.966Z,9.46
2023-03-28T07:32:16.239Z,9.49
2023-03-28T07:34:46.933Z,9.65
2023-03-28T07:37:21.223Z,9.78
2023-03-28T07:39:58.527Z,9.84
2023-03-28T07:42:28.778Z,9.60
2023-03-28T07:44:57.107Z,9.83
2023-03-28T07:47:25.469Z,9.87
2023-03-28T07:49:54.468Z,9.96
2023-03-28T07:52:23.628Z,10.03
2023-03-28T07:54:52.129Z,10.08
2023-03-28T07:57:21.977Z,10.12
2023-03-28T07:59:59.390Z,10.24
2023-03-28T08:02:29.405Z,10.30
2023-03-28T08:04:58.001Z,10.42
2023-03-28T08:07:28.347Z,10.48
2023-03-28T08:09:58.865Z,10.57
2023-03-28T08:12:31.648Z,10.66
2023-03-28T08:15:00.336Z,10.70
2023-03-28T08:17:29.790Z,10.82
2023-03-28T08:19:58.988Z,10.95
2023-03-28T08:22:30.769Z,11.06
2023-03-28T08:25:12.403Z,11.17
2023-03-28T08:27:42.449Z,11.28
2023-03-28T08:30:14.551Z,11.34
2023-03-28T08:32:54.351Z,11.54
2023-03-28T08:35:22.900Z,11.67
2023-03-28T08:37:56.112Z,11.95
2023-03-28T08:40:27.274Z,12.15
2023-03-28T08:43:31.411Z,12.47
2023-03-28T08:46:01.940Z,12.61
2023-03-28T08:48:39.163Z,12.58
2023-03-28T08:51:23.655Z,13.08
2023-03-28T08:54:03.789Z,13.12
2023-03-28T08:56:36.409Z,13.16
2023-03-28T08:59:08.774Z,13.21
2023-03-28T09:01:37.385Z,13.29
2023-03-28T09:04:06.387Z,13.26
2023-03-28T09:06:40.150Z,13.28
2023-03-28T09:09:29.172Z,13.24
2023-03-28T09:12:27.762Z,13.18
2023-03-28T09:15:14.944Z,13.17
2023-03-28T09:17:53.625Z,13.16
2023-03-28T09:20:29.975Z,13.08
2023-03-28T09:23:58.810Z,13.09
2023-03-28T09:26:58.675Z,13.11
2023-03-28T09:29:28.061Z,13.21
2023-03-28T09:32:02.413Z,13.15
2023-03-28T09:34:39.526Z,13.16
2023-03-28T09:37:19.035Z,13.16
2023-03-28T09:39:52.509Z,13.10
2023-03-28T09:42:32.685Z,13.13
2023-03-28T09:45:32.569Z,13.15
2023-03-28T09:48:03.722Z,13.22
2023-03-28T09:50:37.812Z,13.27
2023-03-28T09:53:06.973Z,13.34
2023-03-28T09:55:36.246Z,13.41
2023-03-28T09:58:09.809Z,13.41
2023-03-28T10:01:05.554Z,13.40
2023-03-28T10:04:17.527Z,13.47
2023-03-28T10:07:28.583Z,13.60
2023-03-28T10:10:12.372Z,13.72
2023-03-28T10:12:43.705Z,13.80
2023-03-28T10:15:32.361Z,13.90
2023-03-28T10:18:41.719Z,13.99
2023-03-28T10:21:21.102Z,13.90
2023-03-28T10:24:05.486Z,14.19
2023-03-28T10:26:34.439Z,14.35
2023-03-28T10:29:08.437Z,14.61
2023-03-28T10:31:40.294Z,14.83
2023-03-28T10:34:28.944Z,15.11
2023-03-28T10:37:24.164Z,15.07
2023-03-28T10:40:23.917Z,15.37
2023-03-28T10:43:37.528Z,15.36
2023-03-28T10:46:32.616Z,15.64
2023-03-28T10:49:22.790Z,15.84
2023-03-28T10:52:20.853Z,16.06
2023-03-28T10:55:04.968Z,16.17
2023-03-28T10:57:55.445Z,16.24
2023-03-28T11:00:28.561Z,16.45
2023-03-28T11:03:19.937Z,16.65
2023-03-28T11:06:08.045Z,16.77
2023-03-28T11:08:51.954Z,16.89
2023-03-28T11:11:40.703Z,16.83
2023-03-28T11:14:19.614Z,16.87
2023-03-28T11:16:59.101Z,16.81
2023-03-28T11:20:27.166Z,16.72
2023-03-28T11:23:38.058Z,16.67
2023-03-28T11:26:41.920Z,16.66
2023-03-28T11:29:50.195Z,16.69
2023-03-28T11:32:26.625Z,16.80
2023-03-28T11:35:05.763Z,16.83
2023-03-28T11:37:41.294Z,16.82
2023-03-28T11:40:21.280Z,16.95
2023-03-28T11:43:04.614Z,17.01
2023-03-28T11:45:51.014Z,17.11
2023-03-28T11:48:28.499Z,17.18
2023-03-28T11:51:05.105Z,17.20
2023-03-28T11:53:49.169Z,17.25
2023-03-28T11:56:29.807Z,17.33
2023-03-28T11:59:14.588Z,17.09
2023-03-28T12:01:48.272Z,17.08
2023-03-28T12:04:22.435Z,17.01
2023-03-28T12:07:07.557Z,17.10
2023-03-28T12:09:52.443Z,17.09
2023-03-28T12:12:26.259Z,17.08
2023-03-28T12:15:01.708Z,17.17
2023-03-28T12:17:59.342Z,17.10
2023-03-28T12:20:33.426Z,17.17
2023-03-28T12:23:12.760Z,17.18
2023-03-28T12:26:22.664Z,17.25
2023-03-28T12:28:54.533Z,17.33
2023-03-28T12:31:30.749Z,17.45
2023-03-28T12:34:15.394Z,17.45
2023-03-28T12:37:21.899Z,17.44
2023-03-28T12:39:55.993Z,17.52
2023-03-28T12:42:30.676Z,17.63
2023-03-28T12:45:01.708Z,17.57
2023-03-28T12:47:36.705Z,17.68
2023-03-28T12:50:09.096Z,17.64
2023-03-28T12:52:42.374Z,17.57
2023-03-28T12:55:48.735Z,17.53
2023-03-28T12:58:27.371Z,17.54
2023-03-28T13:01:29.941Z,17.70
2023-03-28T13:04:31.981Z,17.69
2023-03-28T13:07:26.049Z,17.90
2023-03-28T13:10:04.651Z,17.94
2023-03-28T13:12:49.618Z,17.95
2023-03-28T13:15:31.058Z,17.92
2023-03-28T13:18:31.890Z,17.97
2023-03-28T13:21:04.588Z,17.94
2023-03-28T13:23:36.871Z,18.09
2023-03-28T13:26:07.171Z,18.12
2023-03-28T13:28:42.411Z,18.15
2023-03-28T13:31:14.386Z,18.14
2023-03-28T13:33:48.431Z,18.19
2023-03-28T13:36:27.065Z,18.17
2023-03-28T13:39:20.109Z,18.21
2023-03-28T13:42:01.776Z,18.23
2023-03-28T13:44:40.411Z,18.28
2023-03-28T13:47:16.520Z,18.40
2023-03-28T13:49:49.290Z,18.45
2023-03-28T13:52:21.671Z,18.52
2023-03-28T13:54:54.454Z,18.49
2023-03-28T13:57:26.138Z,18.50
2023-03-28T14:00:00.140Z,18.48
2023-03-28T14:02:38.717Z,18.40
2023-03-28T14:05:19.578Z,18.24
2023-03-28T14:07:50.420Z,18.32
2023-03-28T14:10:29.050Z,18.32
2023-03-28T14:13:00.270Z,18.52
2023-03-28T14:15:33.773Z,18.55
2023-03-28T14:18:04.040Z,18.50
2023-03-28T14:20:34.381Z,18.48
2023-03-28T14:23:04.622Z,18.50
2023-03-28T14:25:34.350Z,18.55
2023-03-28T14:28:08.845Z,18.57
2023-03-28T14:30:42.487Z,18.48
2023-03-28T14:33:20.605Z,18.49
2023-03-28T14:35:58.501Z,18.46
2023-03-28T14:38:35.329Z,17.99
2023-03-28T14:41:15.391Z,18.45
2023-03-28T14:43:43.965Z,18.45
2023-03-28T14:46:12.610Z,18.38
2023-03-28T14:48:43.446Z,18.38
2023-03-28T14:51:14.893Z,18.43
2023-03-28T14:53:47.659Z,18.42
2023-03-28T14:56:23.709Z,18.27
2023-03-28T14:58:54.155Z,18.19
2023-03-28T15:01:24.029Z,18.20
2023-03-28T15:03:58.007Z,18.25
2023-03-28T15:06:29.502Z,18.32
2023-03-28T15:09:04.296Z,18.31
2023-03-28T15:11:36.612Z,18.36
2023-03-28T15:14:08.415Z,18.42
2023-03-28T15:16:39.737Z,18.28
2023-03-28T15:19:10.606Z,18.53
2023-03-28T15:21:42.003Z,18.55
2023-03-28T15:24:16.703Z,18.58
2023-03-28T15:26:47.967Z,18.55
2023-03-28T15:29:18.636Z,18.59
2023-03-28T15:31:48.068Z,18.55
2023-03-28T15:34:22.403Z,18.53
2023-03-28T15:36:52.821Z,18.41
2023-03-28T15:39:27.351Z,18.20
2023-03-28T15:42:00.640Z,18.12
2023-03-28T15:44:31.969Z,18.05
2023-03-28T15:47:02.958Z,18.07
2023-03-28T15:49:36.869Z,18.05
2023-03-28T15:52:09.407Z,18.10
2023-03-28T15:54:44.513Z,18.05
2023-03-28T15:57:15.830Z,18.04
2023-03-28T15:59:48.657Z,18.07
2023-03-28T16:02:32.723Z,18.04
2023-03-28T16:05:03.040Z,18.02
2023-03-28T16:07:36.606Z,17.96
2023-03-28T16:10:07.556Z,17.92
2023-03-28T16:12:50.649Z,17.91
2023-03-28T16:15:32.887Z,17.85
2023-03-28T16:18:12.608Z,17.75
2023-03-28T16:20:50.347Z,17.66
2023-03-28T16:23:18.671Z,17.52
2023-03-28T16:25:50.651Z,17.44
2023-03-28T16:28:20.133Z,17.27
2023-03-28T16:30:48.428Z,17.19
2023-03-28T16:33:17.812Z,17.17
2023-03-28T16:35:46.246Z,17.09
2023-03-28T16:38:14.712Z,17.02
2023-03-28T16:40:43.103Z,16.93
2023-03-28T16:43:15.548Z,16.80
2023-03-28T16:45:47.115Z,16.63
2023-03-28T16:48:15.878Z,16.50
2023-03-28T16:50:50.688Z,16.29
2023-03-28T16:53:19.174Z,16.16
2023-03-28T16:55:47.620Z,16.14
2023-03-28T16:58:17.484Z,16.08
2023-03-28T17:00:48.116Z,15.97
2023-03-28T17:03:17.205Z,15.91
2023-03-28T17:05:45.726Z,15.87
2023-03-28T17:08:14.270Z,15.84
2023-03-28T17:10:43.864Z,15.72
2023-03-28T17:13:12.246Z,15.67
2023-03-28T17:15:42.501Z,15.65
2023-03-28T17:18:11.432Z,15.61
2023-03-28T17:20:39.809Z,15.57
2023-03-28T17:23:08.218Z,15.53
2023-03-28T17:25:48.119Z,15.49
2023-03-28T17:28:23.222Z,15.40
2023-03-28T17:30:53.397Z,15.37
2023-03-28T17:33:22.603Z,15.34
2023-03-28T17:35:51.295Z,15.29
2023-03-28T17:38:19.700Z,15.19
2023-03-28T17:40:48.248Z,15.15
2023-03-28T17:43:17.098Z,14.95
2023-03-28T17:45:45.509Z,15.00
2023-03-28T17:48:15.268Z,14.97
2023-03-28T17:50:43.684Z,14.88
2023-03-28T17:53:12.085Z,14.82
2023-03-28T17:55:40.859Z,14.77
2023-03-28T17:58:09.350Z,14.70
2023-03-28T18:00:38.192Z,14.66
2023-03-28T18:03:06.653Z,14.57
2023-03-28T18:06:00.453Z,14.49
2023-03-28T18:08:29.565Z,14.40
2023-03-28T18:11:02.159Z,14.25
2023-03-28T18:13:30.532Z,14.14
2023-03-28T18:15:59.015Z,14.07
2023-03-28T18:18:27.851Z,13.86
2023-03-28T18:20:57.934Z,13.79
2023-03-28T18:23:27.014Z,13.65
2023-03-28T18:25:55.374Z,13.43
2023-03-28T18:28:24.632Z,13.38
2023-03-28T18:30:53.732Z,13.30
2023-03-28T18:33:22.738Z,13.16
2023-03-28T18:35:51.370Z,13.01
2023-03-28T18:38:21.176Z,12.96
2023-03-28T18:40:53.588Z,12.84
2023-03-28T18:43:23.947Z,12.64
2023-03-28T18:45:56.343Z,12.60
2023-03-28T18:48:24.751Z,12.56
2023-03-28T18:50:53.335Z,12.49
2023-03-28T18:53:23.708Z,12.33
2023-03-28T18:55:52.688Z,12.17
2023-03-28T18:58:23.481Z,12.04
2023-03-28T19:00:59.327Z,11.88
2023-03-28T19:03:30.275Z,11.73
2023-03-28T19:06:00.539Z,11.63
2023-03-28T19:08:31.248Z,11.60
2023-03-28T19:11:01.721Z,11.53
2023-03-28T19:13:30.842Z,11.42
2023-03-28T19:16:00.705Z,11.32
2023-03-28T19:18:30.083Z,11.27
2023-03-28T19:20:58.676Z,11.09
2023-03-28T19:23:29.079Z,11.01
2023-03-28T19:25:58.901Z,10.86
2023-03-28T19:28:27.447Z,10.78
2023-03-28T19:31:00.137Z,10.70
2023-03-28T19:33:29.169Z,10.59
2023-03-28T19:35:58.227Z,10.36
2023-03-28T19:38:27.640Z,10.49
2023-03-28T19:41:01.091Z,10.40
2023-03-28T19:43:29.627Z,10.26
2023-03-28T19:46:02.814Z,10.28
2023-03-28T19:48:31.707Z,10.30
2023-03-28T19:51:00.160Z,10.30
2023-03-28T19:53:28.782Z,10.18
2023-03-28T19:55:59.095Z,10.05
2023-03-28T19:58:29.826Z,9.95
2023-03-28T20:00:58.477Z,9.89
2023-03-28T20:03:28.056Z,9.76
2023-03-28T20:05:56.461Z,9.69
2023-03-28T20:08:24.841Z,9.59
2023-03-28T20:10:53.883Z,9.49
2023-03-28T20:13:23.440Z,9.38
2023-03-28T20:15:53.344Z,9.27
2023-03-28T20:18:22.756Z,9.14
2023-03-28T20:20:52.130Z,9.04
2023-03-28T20:23:22.762Z,9.08
2023-03-28T20:25:52.300Z,9.03
2023-03-28T20:28:21.539Z,8.91
2023-03-28T20:30:50.029Z,8.82
2023-03-28T20:33:20.857Z,8.73
2023-03-28T20:35:53.398Z,8.69
2023-03-28T20:38:23.046Z,8.60
2023-03-28T20:40:51.510Z,8.52
2023-03-28T20:43:21.222Z,8.44
2023-03-28T20:45:53.815Z,8.37
2023-03-28T20:48:35.051Z,8.28
2023-03-28T20:51:04.153Z,8.33
2023-03-28T20:53:33.305Z,8.28
2023-03-28T20:56:03.615Z,8.15
2023-03-28T20:58:33.392Z,8.05
2023-03-28T21:01:04.239Z,7.93
2023-03-28T21:03:46.872Z,7.83
2023-03-28T21:06:16.441Z,7.68
2023-03-28T21:08:47.291Z,7.77
2023-03-28T21:11:16.519Z,7.82
2023-03-28T21:13:45.141Z,7.97
2023-03-28T21:16:16.028Z,8.07
2023-03-28T21:18:46.920Z,8.08
2023-03-28T21:21:18.020Z,7.89
2023-03-28T21:23:47.194Z,7.94
2023-03-28T21:26:18.014Z,7.87
2023-03-28T21:28:47.699Z,7.78
2023-03-28T21:31:20.963Z,7.74
2023-03-28T21:33:50.948Z,7.71
2023-03-28T21:36:21.070Z,7.65
2023-03-28T21:38:49.829Z,7.62
2023-03-28T21:41:18.358Z,7.74
2023-03-28T21:43:47.770Z,7.74
2023-03-28T21:46:18.657Z,7.74
2023-03-28T21:48:48.146Z,7.67
2023-03-28T21:51:18.918Z,7.59
2023-03-28T21:53:48.297Z,7.58
2023-03-28T21:56:16.938Z,7.51
2023-03-28T21:58:45.620Z,7.33
2023-03-28T22:01:18.133Z,7.40
2023-03-28T22:03:47.412Z,7.35
2023-03-28T22:06:18.526Z,7.31
2023-03-28T22:08:52.376Z,7.22
2023-03-28T22:11:27.763Z,7.13
2023-03-28T22:14:01.575Z,7.13
2023-03-28T22:16:35.136Z,7.11
2023-03-28T22:19:03.530Z,7.02
2023-03-28T22:21:33.501Z,6.93
2023-03-28T22:24:04.513Z,6.84
2023-03-28T22:26:32.924Z,6.79
2023-03-28T22:29:01.322Z,6.76
2023-03-28T22:31:29.905Z,6.72
2023-03-28T22:33:58.250Z,6.64
2023-03-28T22:36:27.221Z,6.62
2023-03-28T22:38:57.113Z,6.63
2023-03-28T22:41:25.706Z,6.70
2023-03-28T22:43:54.371Z,6.78
2023-03-28T22:46:22.988Z,6.64
2023-03-28T22:48:54.457Z,6.55
2023-03-28T22:51:25.367Z,6.62
2023-03-28T22:53:54.225Z,6.55
2023-03-28T22:56:25.571Z,6.19
2023-03-28T22:58:54.063Z,6.43
2023-03-28T23:01:26.220Z,6.39
2023-03-28T23:03:54.718Z,6.32
2023-03-28T23:06:23.498Z,6.23
2023-03-28T23:08:52.192Z,6.19
2023-03-28T23:11:20.577Z,6.15
2023-03-28T23:13:50.401Z,6.11
2023-03-28T23:16:18.872Z,6.08
2023-03-28T23:18:50.190Z,6.08
2023-03-28T23:21:18.985Z,6.14
2023-03-28T23:23:47.711Z,6.19
2023-03-28T23:26:16.868Z,6.10
2023-03-28T23:28:45.224Z,5.99
2023-03-28T23:31:15.229Z,5.90
2023-03-28T23:33:44.769Z,5.91
2023-03-28T23:36:14.195Z,5.98
2023-03-28T23:38:43.024Z,5.97
2023-03-28T23:41:11.368Z,5.97
2023-03-28T23:43:40.110Z,5.94
2023-03-28T23:46:09.143Z,5.89
2023-03-28T23:48:39.188Z,5.82
2023-03-28T23:51:09.216Z,5.72
2023-03-28T23:53:37.634Z,5.64
2023-03-28T23:56:07.093Z,5.62
2023-03-28T23:58:36.252Z,5.71
